createdAt,value
2019-05-25T00:02:18.272Z,12.50
2019-05-25T00:04:46.990Z,12.50
2019-05-25T00:07:15.679Z,12.50
2019-05-25T00:09:47.690Z,12.50
2019-05-25T00:12:14.848Z,12.40
2019-05-25T00:14:43.688Z,12.40
2019-05-25T00:17:12.403Z,12.40
2019-05-25T00:19:41.278Z,12.40
2019-05-25T00:22:10.012Z,12.30
2019-05-25T00:24:38.771Z,12.30
2019-05-25T00:27:07.494Z,12.30
2019-05-25T00:29:36.228Z,12.30
2019-05-25T00:32:04.924Z,12.30
2019-05-25T00:34:33.716Z,12.20
2019-05-25T00:37:02.454Z,12.20
2019-05-25T00:39:31.125Z,12.30
2019-05-25T00:41:59.856Z,12.20
2019-05-25T00:44:28.600Z,12.20
2019-05-25T00:46:57.407Z,12.10
2019-05-25T00:49:26.079Z,12.10
2019-05-25T00:51:54.777Z,12.10
2019-05-25T00:54:27.814Z,12.10
2019-05-25T00:56:54.010Z,12.00
2019-05-25T00:59:22.762Z,12.00
2019-05-25T01:01:51.438Z,12.00
2019-05-25T01:04:20.142Z,12.00
2019-05-25T01:06:48.909Z,11.90
2019-05-25T01:09:17.678Z,11.90
2019-05-25T01:11:46.610Z,12.00
2019-05-25T01:14:15.414Z,11.90
2019-05-25T01:16:44.279Z,11.90
2019-05-25T01:19:13.029Z,11.90
2019-05-25T01:21:41.744Z,11.80
2019-05-25T01:24:10.483Z,11.90
2019-05-25T01:26:39.222Z,11.90
2019-05-25T01:29:07.914Z,11.90
2019-05-25T01:31:36.603Z,11.90
2019-05-25T01:34:05.312Z,11.90
2019-05-25T01:36:33.998Z,11.90
2019-05-25T01:39:02.742Z,11.90
2019-05-25T01:41:31.499Z,11.90
2019-05-25T01:44:00.229Z,11.80
2019-05-25T01:46:29.251Z,11.80
2019-05-25T01:48:58.009Z,11.70
2019-05-25T01:51:26.730Z,11.80
2019-05-25T01:53:55.459Z,11.70
2019-05-25T01:56:24.198Z,11.60
2019-05-25T01:58:52.976Z,11.50
2019-05-25T02:01:21.689Z,11.50
2019-05-25T02:03:50.408Z,11.50
2019-05-25T02:06:19.152Z,11.40
2019-05-25T02:08:47.980Z,11.40
2019-05-25T02:11:16.682Z,11.30
2019-05-25T02:13:45.413Z,11.40
2019-05-25T02:16:14.183Z,11.30
2019-05-25T02:18:45.592Z,11.30
2019-05-25T02:21:13.350Z,11.30
2019-05-25T02:23:42.083Z,11.20
2019-05-25T02:26:10.791Z,11.20
2019-05-25T02:28:39.517Z,11.20
2019-05-25T02:31:08.588Z,11.20
2019-05-25T02:33:37.309Z,11.20
2019-05-25T02:36:05.999Z,11.20
2019-05-25T02:38:34.799Z,11.20
2019-05-25T02:41:03.487Z,11.20
2019-05-25T02:43:32.303Z,11.20
2019-05-25T02:46:01.034Z,11.20
2019-05-25T02:48:29.732Z,11.10
2019-05-25T02:50:58.436Z,11.10
2019-05-25T02:53:27.172Z,11.10
2019-05-25T02:55:55.926Z,11.00
2019-05-25T02:58:24.726Z,11.00
2019-05-25T03:00:53.533Z,11.00
2019-05-25T03:03:22.231Z,10.90
2019-05-25T03:05:51.033Z,10.90
2019-05-25T03:08:19.972Z,10.90
2019-05-25T03:10:49.000Z,10.90
2019-05-25T03:13:18.021Z,10.90
2019-05-25T03:15:46.743Z,10.90
2019-05-25T03:18:15.462Z,11.00
2019-05-25T03:20:44.207Z,11.10
2019-05-25T03:23:12.873Z,11.10
2019-05-25T03:25:49.737Z,11.10
2019-05-25T03:28:12.050Z,11.10
2019-05-25T03:30:40.842Z,11.10
2019-05-25T03:33:09.625Z,11.10
2019-05-25T03:35:38.351Z,11.10
2019-05-25T03:38:07.024Z,11.10
2019-05-25T03:40:35.808Z,11.10
2019-05-25T03:43:04.559Z,11.10
2019-05-25T03:45:33.443Z,11.10
2019-05-25T03:48:02.150Z,11.30
2019-05-25T03:50:30.860Z,11.30
2019-05-25T03:52:59.621Z,11.30
2019-05-25T03:55:28.323Z,11.30
2019-05-25T03:57:57.054Z,11.40
2019-05-25T04:00:35.557Z,11.40
2019-05-25T04:03:04.324Z,11.40
2019-05-25T04:05:33.065Z,11.60
2019-05-25T04:08:01.759Z,11.60
2019-05-25T04:10:30.511Z,11.70
2019-05-25T04:12:59.302Z,11.80
2019-05-25T04:15:28.014Z,11.80
2019-05-25T04:17:56.683Z,11.90
2019-05-25T04:20:25.450Z,11.90
2019-05-25T04:22:54.134Z,11.90
2019-05-25T04:25:22.882Z,12.00
2019-05-25T04:27:51.651Z,12.00
2019-05-25T04:30:20.413Z,12.00
2019-05-25T04:32:49.116Z,12.20
2019-05-25T04:35:17.831Z,12.20
2019-05-25T04:37:46.587Z,12.20
2019-05-25T04:40:15.590Z,12.20
2019-05-25T04:42:44.338Z,12.20
2019-05-25T04:45:14.619Z,12.10
2019-05-25T04:47:43.286Z,12.00
2019-05-25T04:50:12.246Z,11.90
2019-05-25T04:52:41.742Z,12.10
2019-05-25T04:55:10.467Z,12.20
2019-05-25T04:57:39.288Z,12.20
2019-05-25T05:00:08.383Z,12.30
2019-05-25T05:02:37.159Z,12.30
2019-05-25T05:05:06.136Z,12.40
2019-05-25T05:07:34.831Z,12.40
2019-05-25T05:10:03.673Z,12.50
2019-05-25T05:12:32.402Z,12.20
2019-05-25T05:15:01.239Z,12.30
2019-05-25T05:17:29.985Z,12.10
2019-05-25T05:19:58.700Z,12.30
2019-05-25T05:22:27.690Z,12.40
2019-05-25T05:24:56.425Z,12.40
2019-05-25T05:27:25.155Z,12.40
2019-05-25T05:29:53.853Z,12.40
2019-05-25T05:32:27.621Z,12.30
2019-05-25T05:34:53.171Z,12.40
2019-05-25T05:37:21.883Z,12.30
2019-05-25T05:39:50.630Z,12.50
2019-05-25T05:42:19.346Z,12.40
2019-05-25T05:44:48.087Z,12.40
2019-05-25T05:47:17.250Z,12.40
2019-05-25T05:49:46.023Z,12.40
2019-05-25T05:52:14.742Z,12.40
2019-05-25T05:54:44.122Z,12.50
2019-05-25T05:57:13.101Z,12.40
2019-05-25T05:59:41.867Z,12.50
2019-05-25T06:02:10.567Z,12.30
2019-05-25T06:04:39.224Z,12.30
2019-05-25T06:07:07.997Z,12.30
2019-05-25T06:09:36.708Z,12.50
2019-05-25T06:12:05.455Z,12.30
2019-05-25T06:14:34.447Z,12.40
2019-05-25T06:17:03.212Z,12.60
2019-05-25T06:19:32.045Z,12.50
2019-05-25T06:22:00.814Z,12.50
2019-05-25T06:24:29.549Z,12.60
2019-05-25T06:26:58.456Z,12.60
2019-05-25T06:29:27.136Z,12.60
2019-05-25T06:31:55.824Z,12.70
2019-05-25T06:34:24.589Z,12.80
2019-05-25T06:36:53.345Z,12.80
2019-05-25T06:39:22.039Z,13.10
2019-05-25T06:41:50.750Z,12.90
2019-05-25T06:44:19.445Z,13.00
2019-05-25T06:46:48.186Z,13.30
2019-05-25T06:49:16.897Z,13.40
2019-05-25T06:51:45.591Z,13.50
2019-05-25T06:54:14.283Z,13.50
2019-05-25T06:56:43.062Z,13.40
2019-05-25T06:59:11.834Z,13.50
2019-05-25T07:01:40.615Z,13.30
2019-05-25T07:04:09.337Z,13.30
2019-05-25T07:06:38.045Z,13.30
2019-05-25T07:09:07.621Z,13.30
2019-05-25T07:11:36.298Z,13.50
2019-05-25T07:14:05.088Z,13.70
2019-05-25T07:16:33.783Z,13.80
2019-05-25T07:19:02.448Z,13.80
2019-05-25T07:21:31.532Z,13.80
2019-05-25T07:24:01.561Z,13.70
2019-05-25T07:26:30.247Z,13.60
2019-05-25T07:28:58.962Z,13.70
2019-05-25T07:31:27.758Z,13.70
2019-05-25T07:33:56.480Z,13.70
2019-05-25T07:36:25.244Z,13.70
2019-05-25T07:38:53.942Z,13.70
2019-05-25T07:41:22.709Z,14.10
2019-05-25T07:43:51.442Z,14.20
2019-05-25T07:46:20.110Z,14.00
2019-05-25T07:48:50.495Z,14.20
2019-05-25T07:51:19.377Z,14.20
2019-05-25T07:53:48.209Z,14.40
2019-05-25T07:56:16.999Z,14.30
2019-05-25T07:58:45.715Z,14.30
2019-05-25T08:01:14.418Z,14.40
2019-05-25T08:03:43.199Z,14.40
2019-05-25T08:06:12.054Z,14.20
2019-05-25T08:08:40.786Z,14.00
2019-05-25T08:11:09.538Z,14.00
2019-05-25T08:13:38.360Z,14.00
2019-05-25T08:16:07.121Z,14.30
2019-05-25T08:18:35.809Z,14.10
2019-05-25T08:21:04.626Z,14.00
2019-05-25T08:23:33.377Z,14.20
2019-05-25T08:26:02.179Z,14.40
2019-05-25T08:28:33.089Z,14.40
2019-05-25T08:31:01.695Z,14.70
2019-05-25T08:33:30.612Z,14.90
2019-05-25T08:35:59.369Z,15.10
2019-05-25T08:38:28.056Z,15.10
2019-05-25T08:40:56.794Z,15.20
2019-05-25T08:43:25.656Z,15.20
2019-05-25T08:45:54.346Z,15.30
2019-05-25T08:48:23.073Z,15.40
2019-05-25T08:50:51.859Z,15.40
2019-05-25T08:53:31.191Z,15.50
2019-05-25T08:55:50.970Z,15.70
2019-05-25T08:58:19.722Z,15.50
2019-05-25T09:00:48.494Z,15.70
2019-05-25T09:03:17.209Z,15.40
2019-05-25T09:05:45.923Z,15.30
2019-05-25T09:08:14.631Z,15.40
2019-05-25T09:10:43.401Z,15.40
2019-05-25T09:13:12.158Z,15.40
2019-05-25T09:15:40.931Z,15.50
2019-05-25T09:18:10.006Z,15.60
2019-05-25T09:20:38.744Z,15.80
2019-05-25T09:23:07.524Z,15.80
2019-05-25T09:25:36.263Z,15.60
2019-05-25T09:28:05.236Z,15.40
2019-05-25T09:30:34.440Z,15.50
2019-05-25T09:33:03.242Z,15.60
2019-05-25T09:35:31.988Z,15.80
2019-05-25T09:38:00.659Z,16.00
2019-05-25T09:40:29.481Z,15.90
2019-05-25T09:42:58.210Z,15.90
2019-05-25T09:45:26.911Z,15.90
2019-05-25T09:47:55.657Z,15.80
2019-05-25T09:50:24.363Z,15.80
2019-05-25T09:52:53.052Z,15.90
2019-05-25T09:55:21.807Z,15.80
2019-05-25T09:57:50.617Z,15.70
2019-05-25T10:00:20.649Z,15.90
2019-05-25T10:02:49.515Z,16.30
2019-05-25T10:05:18.306Z,16.30
2019-05-25T10:07:47.035Z,16.20
2019-05-25T10:10:15.785Z,16.00
2019-05-25T10:12:44.546Z,15.80
2019-05-25T10:15:13.932Z,16.10
2019-05-25T10:17:42.765Z,16.30
2019-05-25T10:20:11.659Z,16.50
2019-05-25T10:22:40.456Z,16.10
2019-05-25T10:25:09.286Z,16.30
2019-05-25T10:27:38.040Z,16.30
2019-05-25T10:30:06.910Z,16.30
2019-05-25T10:32:35.737Z,16.30
2019-05-25T10:35:05.286Z,16.00
2019-05-25T10:37:34.006Z,15.90
2019-05-25T10:40:02.692Z,16.30
2019-05-25T10:42:31.412Z,16.80
2019-05-25T10:45:00.191Z,16.70
2019-05-25T10:47:29.156Z,16.60
2019-05-25T10:49:58.009Z,16.60
2019-05-25T10:52:26.826Z,16.50
2019-05-25T10:54:55.626Z,16.60
2019-05-25T10:57:24.343Z,16.50
2019-05-25T10:59:53.565Z,16.30
2019-05-25T11:02:22.328Z,16.70
2019-05-25T11:04:51.076Z,16.30
2019-05-25T11:07:19.768Z,16.40
2019-05-25T11:09:48.726Z,16.80
2019-05-25T11:12:17.390Z,16.90
2019-05-25T11:14:46.103Z,16.80
2019-05-25T11:17:14.840Z,16.80
2019-05-25T11:19:43.588Z,16.60
2019-05-25T11:22:12.542Z,16.60
2019-05-25T11:24:41.225Z,16.70
2019-05-25T11:27:10.101Z,17.00
2019-05-25T11:29:38.797Z,17.30
2019-05-25T11:32:07.795Z,17.30
2019-05-25T11:34:36.585Z,17.10
2019-05-25T11:37:05.257Z,16.80
2019-05-25T11:39:34.050Z,16.80
2019-05-25T11:42:02.765Z,17.00
2019-05-25T11:44:31.550Z,17.20
2019-05-25T11:47:00.333Z,17.40
2019-05-25T11:49:29.009Z,16.90
2019-05-25T11:51:57.761Z,17.20
2019-05-25T11:54:26.460Z,17.40
2019-05-25T11:56:55.236Z,17.40
2019-05-25T11:59:23.920Z,17.20
2019-05-25T12:01:52.672Z,17.40
2019-05-25T12:04:21.391Z,17.50
2019-05-25T12:06:50.462Z,17.30
2019-05-25T12:09:19.243Z,17.50
2019-05-25T12:11:48.108Z,17.60
2019-05-25T12:14:17.015Z,17.70
2019-05-25T12:16:45.817Z,17.40
2019-05-25T12:19:15.097Z,17.70
2019-05-25T12:21:45.234Z,17.90
2019-05-25T12:24:14.011Z,17.30
2019-05-25T12:26:42.994Z,17.30
2019-05-25T12:29:11.702Z,17.50
2019-05-25T12:31:40.432Z,17.40
2019-05-25T12:34:09.157Z,17.60
2019-05-25T12:36:37.880Z,17.80
2019-05-25T12:39:07.375Z,17.40
2019-05-25T12:41:36.340Z,17.30
2019-05-25T12:44:05.095Z,17.80
2019-05-25T12:46:33.871Z,18.20
2019-05-25T12:49:02.696Z,18.00
2019-05-25T12:51:31.454Z,18.00
2019-05-25T12:54:00.470Z,18.00
2019-05-25T12:56:29.174Z,18.10
2019-05-25T12:58:58.901Z,18.00
2019-05-25T13:01:27.612Z,18.20
2019-05-25T13:03:56.319Z,17.80
2019-05-25T13:06:25.031Z,18.10
2019-05-25T13:08:53.767Z,18.20
2019-05-25T13:11:22.491Z,18.00
2019-05-25T13:13:52.971Z,18.40
2019-05-25T13:16:21.753Z,18.00
2019-05-25T13:18:50.457Z,17.90
2019-05-25T13:21:19.127Z,18.00
2019-05-25T13:23:47.808Z,18.20
2019-05-25T13:26:16.601Z,18.10
2019-05-25T13:28:45.395Z,17.90
2019-05-25T13:31:14.309Z,18.40
2019-05-25T13:33:43.093Z,18.50
2019-05-25T13:36:11.880Z,18.80
2019-05-25T13:38:40.676Z,19.10
2019-05-25T13:41:09.458Z,19.10
2019-05-25T13:43:38.226Z,18.90
2019-05-25T13:46:06.949Z,18.30
2019-05-25T13:48:35.736Z,18.40
2019-05-25T13:51:04.568Z,18.30
2019-05-25T13:53:33.243Z,18.40
2019-05-25T13:56:02.091Z,18.30
2019-05-25T13:58:30.828Z,18.40
2019-05-25T14:00:59.574Z,18.00
2019-05-25T14:03:28.329Z,17.90
2019-05-25T14:05:57.030Z,18.50
2019-05-25T14:08:25.788Z,18.80
2019-05-25T14:10:54.601Z,18.70
2019-05-25T14:13:23.278Z,18.80
2019-05-25T14:16:06.251Z,19.10
2019-05-25T14:18:22.513Z,19.00
2019-05-25T14:20:51.300Z,18.90
2019-05-25T14:23:20.046Z,19.00
2019-05-25T14:25:48.831Z,19.00
2019-05-25T14:28:17.653Z,19.40
2019-05-25T14:30:46.435Z,19.10
2019-05-25T14:33:15.254Z,19.20
2019-05-25T14:35:44.115Z,19.50
2019-05-25T14:38:12.919Z,19.60
2019-05-25T14:40:41.635Z,20.10
2019-05-25T14:43:10.400Z,20.30
2019-05-25T14:45:39.103Z,20.30
2019-05-25T14:48:07.832Z,20.50
2019-05-25T14:50:36.605Z,21.00
2019-05-25T14:53:05.412Z,20.50
2019-05-25T14:55:34.147Z,20.50
2019-05-25T14:58:03.135Z,20.30
2019-05-25T15:00:31.875Z,20.30
2019-05-25T15:03:00.612Z,20.50
2019-05-25T15:05:29.338Z,20.60
2019-05-25T15:07:58.043Z,20.30
2019-05-25T15:10:26.854Z,19.40
2019-05-25T15:12:55.547Z,19.00
2019-05-25T15:15:24.312Z,18.80
2019-05-25T15:17:53.015Z,19.00
2019-05-25T15:20:21.683Z,18.90
2019-05-25T15:22:50.378Z,19.00
2019-05-25T15:25:19.178Z,18.90
2019-05-25T15:27:47.869Z,19.00
2019-05-25T15:30:16.894Z,19.10
2019-05-25T15:32:45.599Z,19.10
2019-05-25T15:35:14.492Z,19.30
2019-05-25T15:37:43.218Z,19.20
2019-05-25T15:40:11.957Z,19.00
2019-05-25T15:42:40.783Z,19.00
2019-05-25T15:45:09.631Z,19.10
2019-05-25T15:47:38.414Z,19.30
2019-05-25T15:50:07.711Z,19.10
2019-05-25T15:52:36.525Z,18.80
2019-05-25T15:55:06.363Z,18.90
2019-05-25T15:57:35.064Z,19.20
2019-05-25T16:00:05.099Z,19.80
2019-05-25T16:02:36.791Z,19.70
2019-05-25T16:05:04.649Z,20.10
2019-05-25T16:07:33.402Z,20.40
2019-05-25T16:10:02.114Z,20.00
2019-05-25T16:12:30.942Z,20.20
2019-05-25T16:14:59.768Z,20.10
2019-05-25T16:17:28.474Z,20.40
2019-05-25T16:19:57.198Z,20.40
2019-05-25T16:22:25.913Z,20.20
2019-05-25T16:24:54.629Z,19.90
2019-05-25T16:27:23.370Z,19.60
2019-05-25T16:29:52.059Z,19.50
2019-05-25T16:32:20.762Z,19.80
2019-05-25T16:34:49.572Z,19.80
2019-05-25T16:37:18.543Z,19.50
2019-05-25T16:39:47.470Z,19.50
2019-05-25T16:42:16.287Z,19.50
2019-05-25T16:44:45.019Z,19.40
2019-05-25T16:47:13.724Z,19.20
2019-05-25T16:49:42.431Z,19.30
2019-05-25T16:52:11.240Z,19.00
2019-05-25T16:54:40.062Z,19.20
2019-05-25T16:57:08.740Z,19.10
2019-05-25T16:59:37.471Z,19.30
2019-05-25T17:02:06.154Z,19.30
2019-05-25T17:04:34.861Z,19.20
2019-05-25T17:07:03.731Z,19.00
2019-05-25T17:09:32.556Z,19.20
2019-05-25T17:12:01.248Z,19.40
2019-05-25T17:14:30.038Z,19.30
2019-05-25T17:16:58.873Z,19.10
2019-05-25T17:19:27.671Z,19.10
2019-05-25T17:21:56.389Z,19.00
2019-05-25T17:24:25.103Z,18.90
2019-05-25T17:26:53.871Z,18.80
2019-05-25T17:29:22.555Z,18.70
2019-05-25T17:31:51.327Z,18.50
2019-05-25T17:34:20.175Z,18.50
2019-05-25T17:36:48.894Z,18.50
2019-05-25T17:39:17.642Z,18.60
2019-05-25T17:41:46.623Z,18.60
2019-05-25T17:44:15.357Z,18.90
2019-05-25T17:46:44.154Z,18.90
2019-05-25T17:49:12.934Z,18.80
2019-05-25T17:51:41.868Z,18.80
2019-05-25T17:54:10.549Z,19.30
2019-05-25T17:56:39.343Z,19.00
2019-05-25T17:59:08.150Z,19.20
2019-05-25T18:01:36.871Z,19.40
2019-05-25T18:04:07.717Z,19.50
2019-05-25T18:06:35.990Z,19.70
2019-05-25T18:09:07.456Z,19.60
2019-05-25T18:11:36.225Z,19.70
2019-05-25T18:14:05.164Z,19.80
2019-05-25T18:16:33.865Z,19.70
2019-05-25T18:19:02.683Z,19.50
2019-05-25T18:21:31.430Z,19.50
2019-05-25T18:24:00.180Z,19.60
2019-05-25T18:26:28.895Z,19.40
2019-05-25T18:28:57.651Z,19.50
2019-05-25T18:31:26.341Z,19.60
2019-05-25T18:33:55.018Z,19.80
2019-05-25T18:36:23.759Z,19.80
2019-05-25T18:38:52.566Z,19.90
2019-05-25T18:41:21.357Z,20.10
2019-05-25T18:43:50.094Z,20.10
2019-05-25T18:46:18.804Z,19.70
2019-05-25T18:48:47.565Z,19.60
2019-05-25T18:51:16.300Z,19.30
2019-05-25T18:53:45.014Z,19.00
2019-05-25T18:56:13.786Z,18.60
2019-05-25T18:58:42.505Z,18.40
2019-05-25T19:01:11.320Z,18.10
2019-05-25T19:03:40.119Z,18.10
2019-05-25T19:06:08.948Z,17.90
2019-05-25T19:08:37.658Z,17.80
2019-05-25T19:11:06.340Z,17.70
2019-05-25T19:13:35.132Z,17.50
2019-05-25T19:16:03.862Z,17.50
2019-05-25T19:18:32.662Z,17.40
2019-05-25T19:21:01.464Z,17.30
2019-05-25T19:23:30.234Z,17.30
2019-05-25T19:25:59.000Z,17.20
2019-05-25T19:28:27.795Z,17.10
2019-05-25T19:30:56.554Z,17.00
2019-05-25T19:33:25.231Z,17.00
2019-05-25T19:35:54.520Z,16.90
2019-05-25T19:38:23.509Z,16.80
2019-05-25T19:40:52.381Z,16.70
2019-05-25T19:43:21.201Z,16.70
2019-05-25T19:45:50.018Z,16.60
2019-05-25T19:48:18.802Z,16.60
2019-05-25T19:50:47.534Z,16.50
2019-05-25T19:53:16.324Z,16.50
2019-05-25T19:55:45.100Z,16.40
2019-05-25T19:58:13.832Z,16.30
2019-05-25T20:00:42.614Z,16.30
2019-05-25T20:03:11.477Z,16.30
2019-05-25T20:05:40.237Z,16.20
2019-05-25T20:08:09.009Z,16.20
2019-05-25T20:10:37.808Z,16.10
2019-05-25T20:13:06.570Z,16.10
2019-05-25T20:15:35.374Z,16.10
2019-05-25T20:18:04.354Z,16.00
2019-05-25T20:20:33.082Z,15.90
2019-05-25T20:23:01.856Z,15.90
2019-05-25T20:25:30.624Z,15.90
2019-05-25T20:27:59.321Z,15.90
2019-05-25T20:30:28.131Z,15.80
2019-05-25T20:32:56.883Z,15.70
2019-05-25T20:35:32.949Z,15.70
2019-05-25T20:37:56.156Z,15.80
2019-05-25T20:40:24.895Z,15.70
2019-05-25T20:42:53.711Z,15.60
2019-05-25T20:45:22.444Z,15.60
2019-05-25T20:47:51.149Z,15.50
2019-05-25T20:50:19.863Z,15.50
2019-05-25T20:52:48.628Z,15.50
2019-05-25T20:55:17.375Z,15.50
2019-05-25T20:57:46.075Z,15.40
2019-05-25T21:00:14.905Z,15.40
2019-05-25T21:03:02.053Z,15.30
2019-05-25T21:05:16.430Z,15.40
2019-05-25T21:07:45.150Z,15.30
2019-05-25T21:10:13.934Z,15.30
2019-05-25T21:12:42.727Z,15.20
2019-05-25T21:15:11.425Z,15.20
2019-05-25T21:17:40.197Z,15.10
2019-05-25T21:20:08.906Z,15.10
2019-05-25T21:22:37.654Z,15.10
2019-05-25T21:25:06.419Z,15.00
2019-05-25T21:27:35.212Z,15.00
2019-05-25T21:30:04.023Z,15.00
2019-05-25T21:32:32.773Z,15.00
2019-05-25T21:35:01.591Z,14.90
2019-05-25T21:37:30.747Z,14.90
2019-05-25T21:39:59.513Z,14.90
2019-05-25T21:42:28.276Z,14.80
2019-05-25T21:44:57.018Z,14.80
2019-05-25T21:47:25.759Z,14.70
2019-05-25T21:49:54.564Z,14.80
2019-05-25T21:52:23.314Z,14.80
2019-05-25T21:54:52.062Z,14.80
2019-05-25T21:57:20.962Z,14.70
2019-05-25T21:59:49.707Z,14.60
2019-05-25T22:02:18.421Z,14.60
2019-05-25T22:04:47.229Z,14.50
2019-05-25T22:07:16.178Z,14.50
2019-05-25T22:09:44.884Z,14.50
2019-05-25T22:12:13.707Z,14.50
2019-05-25T22:14:42.466Z,14.50
2019-05-25T22:17:12.015Z,14.50
2019-05-25T22:19:40.750Z,14.40
2019-05-25T22:22:09.602Z,14.40
2019-05-25T22:24:38.314Z,14.40
2019-05-25T22:27:07.019Z,14.30
2019-05-25T22:29:35.728Z,14.30
2019-05-25T22:32:04.700Z,14.30
2019-05-25T22:43:20.558Z,14.10
2019-05-25T22:45:49.489Z,14.00
2019-05-25T22:48:21.986Z,14.00
2019-05-25T22:50:50.981Z,14.00
2019-05-25T22:53:21.695Z,13.90
2019-05-25T22:55:50.480Z,13.90
2019-05-25T22:58:19.402Z,13.80
2019-05-25T23:00:48.431Z,13.80
2019-05-25T23:03:17.938Z,13.70
2019-05-25T23:05:47.181Z,13.70
2019-05-25T23:08:16.265Z,13.60
2019-05-25T23:10:45.212Z,13.60
2019-05-25T23:13:14.066Z,13.60
2019-05-25T23:15:42.983Z,13.60
2019-05-25T23:18:11.779Z,13.60
2019-05-25T23:20:40.823Z,13.60
2019-05-25T23:23:11.969Z,13.60
2019-05-25T23:25:40.888Z,13.50
2019-05-25T23:28:09.917Z,13.50
2019-05-25T23:30:38.913Z,13.50
2019-05-25T23:33:07.828Z,13.60
2019-05-25T23:35:38.341Z,13.60
2019-05-25T23:38:07.199Z,13.60
2019-05-25T23:40:36.398Z,13.60
2019-05-25T23:43:05.158Z,13.60
2019-05-25T23:45:34.322Z,13.60
2019-05-25T23:48:03.356Z,13.60
2019-05-25T23:50:32.407Z,13.70
2019-05-25T23:53:01.359Z,13.60
2019-05-25T23:55:34.789Z,13.60
2019-05-25T23:58:03.685Z,13.60
